sensor_id;sensor_type;location;lat;lon;timestamp;pressure;altitude;pressure_sealevel;temperature;humidity
46614;BME280;32338;50.430;6.806;2023-05-21T00:01:13;66574.19;;;10.58;100.00
46614;BME280;32338;50.430;6.806;2023-05-21T00:03:40;66569.88;;;10.57;100.00
46614;BME280;32338;50.430;6.806;2023-05-21T00:06:10;66570.81;;;10.55;100.00
46614;BME280;32338;50.430;6.806;2023-05-21T00:08:37;66574.75;;;10.59;100.00
46614;BME280;32338;50.430;6.806;2023-05-21T00:11:04;66574.56;;;10.63;100.00
46614;BME280;32338;50.430;6.806;2023-05-21T00:13:32;66572.50;;;10.57;100.00
46614;BME280;32338;50.430;6.806;2023-05-21T00:15:58;66562.53;;;10.50;100.00
46614;BME280;32338;50.430;6.806;2023-05-21T00:18:25;66567.44;;;10.52;100.00
46614;BME280;32338;50.430;6.806;2023-05-21T00:20:52;66571.19;;;10.53;100.00
46614;BME280;32338;50.430;6.806;2023-05-21T00:23:18;66563.69;;;10.51;100.00
46614;BME280;32338;50.430;6.806;2023-05-21T00:25:45;66570.81;;;10.55;100.00
46614;BME280;32338;50.430;6.806;2023-05-21T00:28:12;66573.41;;;10.55;100.00
46614;BME280;32338;50.430;6.806;2023-05-21T00:30:40;66574.38;;;10.61;100.00
46614;BME280;32338;50.430;6.806;2023-05-21T00:33:07;66577.00;;;10.61;100.00
46614;BME280;32338;50.430;6.806;2023-05-21T00:35:34;66577.00;;;10.61;100.00
46614;BME280;32338;50.430;6.806;2023-05-21T00:38:01;66574.94;;;10.61;100.00
46614;BME280;32338;50.430;6.806;2023-05-21T00:40:29;66576.44;;;10.60;100.00
46614;BME280;32338;50.430;6.806;2023-05-21T00:42:56;66569.13;;;10.53;100.00
46614;BME280;32338;50.430;6.806;2023-05-21T00:45:22;66564.63;;;10.49;100.00
46614;BME280;32338;50.430;6.806;2023-05-21T00:47:51;66568.72;;;10.48;100.00
46614;BME280;32338;50.430;6.806;2023-05-21T00:50:19;66560.28;;;10.48;100.00
46614;BME280;32338;50.430;6.806;2023-05-21T00:52:47;66562.72;;;10.45;100.00
46614;BME280;32338;50.430;6.806;2023-05-21T00:55:14;66551.66;;;10.37;100.00
46614;BME280;32338;50.430;6.806;2023-05-21T00:57:40;66545.25;;;10.29;100.00
46614;BME280;32338;50.430;6.806;2023-05-21T01:00:08;66529.09;;;10.17;100.00
46614;BME280;32338;50.430;6.806;2023-05-21T01:02:36;66522.91;;;10.11;100.00
46614;BME280;32338;50.430;6.806;2023-05-21T01:05:05;66528.91;;;10.14;100.00
46614;BME280;32338;50.430;6.806;2023-05-21T01:07:32;66534.72;;;10.22;100.00
46614;BME280;32338;50.430;6.806;2023-05-21T01:10:01;66543.34;;;10.25;100.00
46614;BME280;32338;50.430;6.806;2023-05-21T01:12:30;66546.72;;;10.28;100.00
46614;BME280;32338;50.430;6.806;2023-05-21T01:14:58;66542.63;;;10.29;100.00
46614;BME280;32338;50.430;6.806;2023-05-21T01:17:26;66543.38;;;10.32;100.00
46614;BME280;32338;50.430;6.806;2023-05-21T01:19:54;66549.38;;;10.35;100.00
46614;BME280;32338;50.430;6.806;2023-05-21T01:22:22;66551.84;;;10.40;100.00
46614;BME280;32338;50.430;6.806;2023-05-21T01:24:53;66555.22;;;10.43;100.00
46614;BME280;32338;50.430;6.806;2023-05-21T01:27:20;66554.47;;;10.40;100.00
46614;BME280;32338;50.430;6.806;2023-05-21T01:29:46;66560.28;;;10.41;100.00
46614;BME280;32338;50.430;6.806;2023-05-21T01:32:19;66550.50;;;10.36;100.00
46614;BME280;32338;50.430;6.806;2023-05-21T01:34:53;66546.56;;;10.33;100.00
46614;BME280;32338;50.430;6.806;2023-05-21T01:37:25;66543.38;;;10.32;100.00
46614;BME280;32338;50.430;6.806;2023-05-21T01:39:56;66545.44;;;10.32;100.00
46614;BME280;32338;50.430;6.806;2023-05-21T01:42:26;66552.78;;;10.38;100.00
46614;BME280;32338;50.430;6.806;2023-05-21T01:44:55;66550.50;;;10.36;100.00
46614;BME280;32338;50.430;6.806;2023-05-21T01:47:23;66547.69;;;10.34;100.00
46614;BME280;32338;50.430;6.806;2023-05-21T01:49:49;66549.75;;;10.33;100.00
46614;BME280;32338;50.430;6.806;2023-05-21T01:52:16;66542.81;;;10.32;100.00
46614;BME280;32338;50.430;6.806;2023-05-21T01:54:43;66544.66;;;10.29;100.00
46614;BME280;32338;50.430;6.806;2023-05-21T01:57:11;66544.50;;;10.33;100.00
46614;BME280;32338;50.430;6.806;2023-05-21T01:59:37;66544.84;;;10.31;100.00
46614;BME280;32338;50.430;6.806;2023-05-21T02:02:04;66543.38;;;10.32;100.00
46614;BME280;32338;50.430;6.806;2023-05-21T02:04:31;66548.25;;;10.34;100.00
46614;BME280;32338;50.430;6.806;2023-05-21T02:06:58;66534.72;;;10.22;100.00
46614;BME280;32338;50.430;6.806;2023-05-21T02:09:24;66529.09;;;10.17;100.00
46614;BME280;32338;50.430;6.806;2023-05-21T02:11:51;66537.16;;;10.19;100.00
46614;BME280;32338;50.430;6.806;2023-05-21T02:14:19;66529.66;;;10.17;100.00
46614;BME280;32338;50.430;6.806;2023-05-21T02:16:45;66515.94;;;10.02;100.00
46614;BME280;32338;50.430;6.806;2023-05-21T02:19:12;66495.31;;;9.86;100.00
46614;BME280;32338;50.430;6.806;2023-05-21T02:21:38;66479.75;;;9.74;100.00
46614;BME280;32338;50.430;6.806;2023-05-21T02:24:05;66475.03;;;9.67;100.00
46614;BME280;32338;50.430;6.806;2023-05-21T02:26:32;66473.16;;;9.63;100.00
46614;BME280;32338;50.430;6.806;2023-05-21T02:28:59;66467.72;;;9.61;100.00
46614;BME280;32338;50.430;6.806;2023-05-21T02:31:27;66467.13;;;9.60;100.00
46614;BME280;32338;50.430;6.806;2023-05-21T02:33:53;66467.72;;;9.61;100.00
46614;BME280;32338;50.430;6.806;2023-05-21T02:36:20;66463.22;;;9.56;100.00
46614;BME280;32338;50.430;6.806;2023-05-21T02:38:49;66461.50;;;9.55;100.00
46614;BME280;32338;50.430;6.806;2023-05-21T02:41:16;66461.91;;;9.53;100.00
46614;BME280;32338;50.430;6.806;2023-05-21T02:43:42;66456.47;;;9.50;100.00
46614;BME280;32338;50.430;6.806;2023-05-21T02:46:09;66457.94;;;9.49;100.00
46614;BME280;32338;50.430;6.806;2023-05-21T02:48:37;66452.13;;;9.49;100.00
46614;BME280;32338;50.430;6.806;2023-05-21T02:51:03;66454.22;;;9.48;100.00
46614;BME280;32338;50.430;6.806;2023-05-21T02:53:30;66460.97;;;9.54;100.00
46614;BME280;32338;50.430;6.806;2023-05-21T02:55:57;66468.66;;;9.59;100.00
46614;BME280;32338;50.430;6.806;2023-05-21T02:58:23;66474.28;;;9.64;100.00
46614;BME280;32338;50.430;6.806;2023-05-21T03:00:50;66473.16;;;9.63;100.00
46614;BME280;32338;50.430;6.806;2023-05-21T03:03:17;66465.28;;;9.63;100.00
46614;BME280;32338;50.430;6.806;2023-05-21T03:05:45;66463.41;;;9.59;100.00
46614;BME280;32338;50.430;6.806;2023-05-21T03:08:12;66464.72;;;9.55;100.00
46614;BME280;32338;50.430;6.806;2023-05-21T03:10:39;66452.34;;;9.51;100.00
46614;BME280;32338;50.430;6.806;2023-05-21T03:13:05;66452.53;;;9.47;100.00
46614;BME280;32338;50.430;6.806;2023-05-21T03:15:32;66459.44;;;9.48;100.00
46614;BME280;32338;50.430;6.806;2023-05-21T03:17:59;66458.91;;;9.55;100.00
46614;BME280;32338;50.430;6.806;2023-05-21T03:20:25;66466.03;;;9.59;100.00
46614;BME280;32338;50.430;6.806;2023-05-21T03:22:54;66471.09;;;9.64;100.00
46614;BME280;32338;50.430;6.806;2023-05-21T03:25:21;66470.88;;;9.61;100.00
46614;BME280;32338;50.430;6.806;2023-05-21T03:27:49;66458.91;;;9.55;100.00
46614;BME280;32338;50.430;6.806;2023-05-21T03:30:16;66466.75;;;9.55;100.00
46614;BME280;32338;50.430;6.806;2023-05-21T03:32:43;66462.84;;;9.58;100.00
46614;BME280;32338;50.430;6.806;2023-05-21T03:35:10;66470.72;;;9.66;100.00
46614;BME280;32338;50.430;6.806;2023-05-21T03:37:36;66479.16;;;9.73;100.00
46614;BME280;32338;50.430;6.806;2023-05-21T03:40:06;66494.75;;;9.85;100.00
46614;BME280;32338;50.430;6.806;2023-05-21T03:42:32;66489.69;;;9.81;100.00
46614;BME280;32338;50.430;6.806;2023-05-21T03:44:59;66481.22;;;9.73;100.00
46614;BME280;32338;50.430;6.806;2023-05-21T03:47:25;66475.97;;;9.66;100.00
46614;BME280;32338;50.430;6.806;2023-05-21T03:49:52;66468.28;;;9.61;100.00
46614;BME280;32338;50.430;6.806;2023-05-21T03:52:19;66460.97;;;9.54;100.00
46614;BME280;32338;50.430;6.806;2023-05-21T03:54:45;66449.53;;;9.49;100.00
46614;BME280;32338;50.430;6.806;2023-05-21T03:57:13;66445.38;;;9.43;100.00
46614;BME280;32338;50.430;6.806;2023-05-21T03:59:40;66447.44;;;9.42;100.00
46614;BME280;32338;50.430;6.806;2023-05-21T04:02:06;66454.56;;;9.46;100.00
46614;BME280;32338;50.430;6.806;2023-05-21T04:04:33;66455.69;;;9.47;100.00
46614;BME280;32338;50.430;6.806;2023-05-21T04:06:59;66451.03;;;9.48;100.00
46614;BME280;32338;50.430;6.806;2023-05-21T04:09:26;66454.00;;;9.46;100.00
46614;BME280;32338;50.430;6.806;2023-05-21T04:11:53;66455.34;;;9.49;100.00
46614;BME280;32338;50.430;6.806;2023-05-21T04:14:20;66457.00;;;9.51;100.00
46614;BME280;32338;50.430;6.806;2023-05-21T04:16:47;66465.44;;;9.51;100.00
46614;BME280;32338;50.430;6.806;2023-05-21T04:19:14;66455.34;;;9.49;100.00
46614;BME280;32338;50.430;6.806;2023-05-21T04:21:41;66455.88;;;9.50;100.00
46614;BME280;32338;50.430;6.806;2023-05-21T04:24:09;66455.50;;;9.45;100.00
46614;BME280;32338;50.430;6.806;2023-05-21T04:26:36;66448.97;;;9.48;100.00
46614;BME280;32338;50.430;6.806;2023-05-21T04:29:06;66454.75;;;9.49;100.00
46614;BME280;32338;50.430;6.806;2023-05-21T04:31:34;66463.00;;;9.54;100.00
46614;BME280;32338;50.430;6.806;2023-05-21T04:34:00;66465.63;;;9.54;100.00
46614;BME280;32338;50.430;6.806;2023-05-21T04:36:27;66463.78;;;9.57;100.00
46614;BME280;32338;50.430;6.806;2023-05-21T04:38:54;66471.81;;;9.60;100.00
46614;BME280;32338;50.430;6.806;2023-05-21T04:41:20;66474.63;;;9.62;100.00
46614;BME280;32338;50.430;6.806;2023-05-21T04:43:47;66469.41;;;9.62;100.00
46614;BME280;32338;50.430;6.806;2023-05-21T04:46:19;66461.72;;;9.57;100.00
46614;BME280;32338;50.430;6.806;2023-05-21T04:48:50;66470.88;;;9.61;100.00
46614;BME280;32338;50.430;6.806;2023-05-21T04:51:19;66469.03;;;9.64;100.00
46614;BME280;32338;50.430;6.806;2023-05-21T04:53:45;66472.97;;;9.68;100.00
46614;BME280;32338;50.430;6.806;2023-05-21T04:56:15;66477.28;;;9.69;100.00
46614;BME280;32338;50.430;6.806;2023-05-21T04:58:42;66487.41;;;9.79;100.00
46614;BME280;32338;50.430;6.806;2023-05-21T05:01:09;66490.22;;;9.81;100.00
46614;BME280;32338;50.430;6.806;2023-05-21T05:03:36;66496.78;;;9.85;100.00
46614;BME280;32338;50.430;6.806;2023-05-21T05:06:05;66495.50;;;9.88;100.00
46614;BME280;32338;50.430;6.806;2023-05-21T05:08:33;66503.00;;;9.90;100.00
46614;BME280;32338;50.430;6.806;2023-05-21T05:11:00;66514.06;;;9.98;100.00
46614;BME280;32338;50.430;6.806;2023-05-21T05:13:27;66514.25;;;10.01;100.00
46614;BME280;32338;50.430;6.806;2023-05-21T05:15:54;66519.53;;;10.08;100.00
46614;BME280;32338;50.430;6.806;2023-05-21T05:18:21;66523.47;;;10.12;100.00
46614;BME280;32338;50.430;6.806;2023-05-21T05:20:48;66525.16;;;10.13;100.00
46614;BME280;32338;50.430;6.806;2023-05-21T05:23:16;66533.97;;;10.19;100.00
46614;BME280;32338;50.430;6.806;2023-05-21T05:25:43;66536.06;;;10.26;100.00
46614;BME280;32338;50.430;6.806;2023-05-21T05:28:09;66554.63;;;10.35;100.00
46614;BME280;32338;50.430;6.806;2023-05-21T05:30:36;66551.84;;;10.40;100.00
46614;BME280;32338;50.430;6.806;2023-05-21T05:33:02;66558.59;;;10.46;100.00
46614;BME280;32338;50.430;6.806;2023-05-21T05:35:29;66570.06;;;10.52;100.00
46614;BME280;32338;50.430;6.806;2023-05-21T05:37:56;66568.19;;;10.55;100.00
46614;BME280;32338;50.430;6.806;2023-05-21T05:40:24;66583.19;;;10.59;100.00
46614;BME280;32338;50.430;6.806;2023-05-21T05:42:50;66576.44;;;10.60;100.00
46614;BME280;32338;50.430;6.806;2023-05-21T05:45:17;66582.09;;;10.65;100.00
46614;BME280;32338;50.430;6.806;2023-05-21T05:47:44;66588.06;;;10.68;100.00
46614;BME280;32338;50.430;6.806;2023-05-21T05:50:11;66582.09;;;10.65;100.00
46614;BME280;32338;50.430;6.806;2023-05-21T05:52:37;66587.34;;;10.73;100.00
46614;BME280;32338;50.430;6.806;2023-05-21T05:55:05;66611.53;;;10.87;100.00
46614;BME280;32338;50.430;6.806;2023-05-21T05:57:34;66612.31;;;10.91;100.00
46614;BME280;32338;50.430;6.806;2023-05-21T06:00:01;66623.03;;;11.00;100.00
46614;BME280;32338;50.430;6.806;2023-05-21T06:02:28;66630.00;;;11.09;100.00
46614;BME280;32338;50.430;6.806;2023-05-21T06:04:55;66645.22;;;11.23;100.00
46614;BME280;32338;50.430;6.806;2023-05-21T06:07:22;66649.53;;;11.25;100.00
46614;BME280;32338;50.430;6.806;2023-05-21T06:09:49;66660.78;;;11.35;100.00
46614;BME280;32338;50.430;6.806;2023-05-21T06:12:15;66654.22;;;11.31;100.00
46614;BME280;32338;50.430;6.806;2023-05-21T06:14:43;66644.44;;;11.20;100.00
46614;BME280;32338;50.430;6.806;2023-05-21T06:17:11;66650.28;;;11.28;100.00
46614;BME280;32338;50.430;6.806;2023-05-21T06:19:38;66650.47;;;11.30;100.00
46614;BME280;32338;50.430;6.806;2023-05-21T06:22:05;66661.38;;;11.43;100.00
46614;BME280;32338;50.430;6.806;2023-05-21T06:24:31;66690.69;;;11.62;100.00
46614;BME280;32338;50.430;6.806;2023-05-21T06:26:58;66700.66;;;11.76;100.00
46614;BME280;32338;50.430;6.806;2023-05-21T06:29:25;66719.09;;;11.91;100.00
46614;BME280;32338;50.430;6.806;2023-05-21T06:31:52;66736.97;;;12.05;100.00
46614;BME280;32338;50.430;6.806;2023-05-21T06:34:19;66750.69;;;12.20;100.00
46614;BME280;32338;50.430;6.806;2023-05-21T06:36:47;66763.66;;;12.31;100.00
46614;BME280;32338;50.430;6.806;2023-05-21T06:39:13;66766.50;;;12.34;100.00
46614;BME280;32338;50.430;6.806;2023-05-21T06:41:40;66761.03;;;12.31;100.00
46614;BME280;32338;50.430;6.806;2023-05-21T06:44:07;66762.34;;;12.28;100.00
46614;BME280;32338;50.430;6.806;2023-05-21T06:46:34;66765.94;;;12.33;100.00
46614;BME280;32338;50.430;6.806;2023-05-21T06:49:02;66766.13;;;12.36;100.00
46614;BME280;32338;50.430;6.806;2023-05-21T06:51:31;66784.94;;;12.48;100.00
46614;BME280;32338;50.430;6.806;2023-05-21T06:53:57;66784.53;;;12.51;100.00
46614;BME280;32338;50.430;6.806;2023-05-21T06:56:24;66782.50;;;12.51;100.00
46614;BME280;32338;50.430;6.806;2023-05-21T06:58:51;66788.13;;;12.56;100.00
46614;BME280;32338;50.430;6.806;2023-05-21T07:01:18;66787.94;;;12.54;100.00
46614;BME280;32338;50.430;6.806;2023-05-21T07:03:46;66792.63;;;12.60;100.00
46614;BME280;32338;50.430;6.806;2023-05-21T07:06:14;66823.50;;;12.86;100.00
46614;BME280;32338;50.430;6.806;2023-05-21T07:08:41;66840.06;;;13.04;100.00
46614;BME280;32338;50.430;6.806;2023-05-21T07:11:07;66852.31;;;13.12;100.00
46614;BME280;32338;50.430;6.806;2023-05-21T07:13:34;66857.38;;;13.17;100.00
46614;BME280;32338;50.430;6.806;2023-05-21T07:16:01;66854.00;;;13.14;100.00
46614;BME280;32338;50.430;6.806;2023-05-21T07:18:28;66853.63;;;13.16;100.00
46614;BME280;32338;50.430;6.806;2023-05-21T07:20:54;66863.75;;;13.18;100.00
46614;BME280;32338;50.430;6.806;2023-05-21T07:23:23;66862.25;;;13.19;100.00
46614;BME280;32338;50.430;6.806;2023-05-21T07:25:50;66859.06;;;13.19;100.00
46614;BME280;32338;50.430;6.806;2023-05-21T07:28:16;66860.97;;;13.23;100.00
46614;BME280;32338;50.430;6.806;2023-05-21T07:30:43;66864.34;;;13.26;100.00
46614;BME280;32338;50.430;6.806;2023-05-21T07:33:09;66868.69;;;13.27;100.00
46614;BME280;32338;50.430;6.806;2023-05-21T07:35:36;66875.81;;;13.32;100.00
46614;BME280;32338;50.430;6.806;2023-05-21T07:38:03;66897.50;;;13.54;100.00
46614;BME280;32338;50.430;6.806;2023-05-21T07:40:31;66916.72;;;13.71;100.00
46614;BME280;32338;50.430;6.806;2023-05-21T07:42:58;66912.75;;;13.68;100.00
46614;BME280;32338;50.430;6.806;2023-05-21T07:45:24;66927.81;;;13.79;100.00
46614;BME280;32338;50.430;6.806;2023-05-21T07:47:51;66948.16;;;13.98;100.00
46614;BME280;32338;50.430;6.806;2023-05-21T07:50:17;66939.50;;;13.94;100.00
46614;BME280;32338;50.430;6.806;2023-05-21T07:52:44;66951.19;;;14.03;100.00
46614;BME280;32338;50.430;6.806;2023-05-21T07:55:11;66969.06;;;14.17;100.00
46614;BME280;32338;50.430;6.806;2023-05-21T07:57:39;66986.22;;;14.35;100.00
46614;BME280;32338;50.430;6.806;2023-05-21T08:00:07;67003.91;;;14.53;100.00
46614;BME280;32338;50.430;6.806;2023-05-21T08:02:34;67029.22;;;14.74;100.00
46614;BME280;32338;50.430;6.806;2023-05-21T08:05:01;67005.63;;;14.55;100.00
46614;BME280;32338;50.430;6.806;2023-05-21T08:07:27;67017.88;;;14.64;100.00
46614;BME280;32338;50.430;6.806;2023-05-21T08:09:56;67021.47;;;14.69;100.00
46614;BME280;32338;50.430;6.806;2023-05-21T08:12:22;67042.78;;;14.86;100.00
46614;BME280;32338;50.430;6.806;2023-05-21T08:14:50;67062.56;;;15.04;100.00
46614;BME280;32338;50.430;6.806;2023-05-21T08:17:17;67083.13;;;15.26;100.00
46614;BME280;32338;50.430;6.806;2023-05-21T08:19:43;67099.34;;;15.38;100.00
46614;BME280;32338;50.430;6.806;2023-05-21T08:22:10;67108.41;;;15.46;100.00
46614;BME280;32338;50.430;6.806;2023-05-21T08:24:36;67114.63;;;15.52;100.00
46614;BME280;32338;50.430;6.806;2023-05-21T08:27:04;67127.81;;;15.66;100.00
46614;BME280;32338;50.430;6.806;2023-05-21T08:29:30;67142.34;;;15.77;100.00
46614;BME280;32338;50.430;6.806;2023-05-21T08:31:58;67141.97;;;15.79;100.00
46614;BME280;32338;50.430;6.806;2023-05-21T08:34:25;67147.09;;;15.84;100.00
46614;BME280;32338;50.430;6.806;2023-05-21T08:36:52;67157.44;;;15.88;100.00
46614;BME280;32338;50.430;6.806;2023-05-21T08:39:18;67154.81;;;15.88;100.00
46614;BME280;32338;50.430;6.806;2023-05-21T08:41:46;67169.53;;;16.02;100.00
46614;BME280;32338;50.430;6.806;2023-05-21T08:44:19;67172.53;;;16.07;100.00
46614;BME280;32338;50.430;6.806;2023-05-21T08:46:48;67180.84;;;16.12;100.00
46614;BME280;32338;50.430;6.806;2023-05-21T08:49:18;67197.44;;;16.30;100.00
46614;BME280;32338;50.430;6.806;2023-05-21T08:51:48;67209.91;;;16.41;100.00
46614;BME280;32338;50.430;6.806;2023-05-21T08:54:15;67212.56;;;16.41;100.00
46614;BME280;32338;50.430;6.806;2023-05-21T08:56:42;67206.88;;;16.36;100.00
46614;BME280;32338;50.430;6.806;2023-05-21T08:59:11;67220.47;;;16.48;100.00
46614;BME280;32338;50.430;6.806;2023-05-21T09:01:38;67207.47;;;16.36;100.00
46614;BME280;32338;50.430;6.806;2023-05-21T09:04:06;67205.75;;;16.35;100.00
46614;BME280;32338;50.430;6.806;2023-05-21T09:06:35;67201.41;;;16.33;100.00
46614;BME280;32338;50.430;6.806;2023-05-21T09:09:07;67210.09;;;16.44;100.00
46614;BME280;32338;50.430;6.806;2023-05-21T09:11:36;67238.41;;;16.62;100.00
46614;BME280;32338;50.430;6.806;2023-05-21T09:14:03;67248.03;;;16.78;100.00
46614;BME280;32338;50.430;6.806;2023-05-21T09:16:30;67266.00;;;16.92;100.00
46614;BME280;32338;50.430;6.806;2023-05-21T09:18:57;67275.63;;;17.01;100.00
46614;BME280;32338;50.430;6.806;2023-05-21T09:21:24;67303.78;;;17.24;100.00
46614;BME280;32338;50.430;6.806;2023-05-21T09:23:54;67323.22;;;17.44;100.00
46614;BME280;32338;50.430;6.806;2023-05-21T09:26:22;67315.84;;;17.38;100.00
46614;BME280;32338;50.430;6.806;2023-05-21T09:28:50;67325.88;;;17.44;100.00
46614;BME280;32338;50.430;6.806;2023-05-21T09:31:17;67336.47;;;17.52;100.00
46614;BME280;32338;50.430;6.806;2023-05-21T09:33:46;67338.53;;;17.58;100.00
46614;BME280;32338;50.430;6.806;2023-05-21T09:36:13;67348.16;;;17.67;100.00
46614;BME280;32338;50.430;6.806;2023-05-21T09:38:40;67359.47;;;17.77;100.00
46614;BME280;32338;50.430;6.806;2023-05-21T09:41:08;67347.03;;;17.66;100.00
46614;BME280;32338;50.430;6.806;2023-05-21T09:43:35;67367.97;;;17.85;100.00
46614;BME280;32338;50.430;6.806;2023-05-21T09:46:01;67375.94;;;17.92;100.00
46614;BME280;32338;50.430;6.806;2023-05-21T09:48:32;67384.63;;;18.03;100.00
46614;BME280;32338;50.430;6.806;2023-05-21T09:51:07;67385.41;;;17.98;100.00
46614;BME280;32338;50.430;6.806;2023-05-21T09:53:34;67392.75;;;18.05;100.00
46614;BME280;32338;50.430;6.806;2023-05-21T09:56:01;67399.75;;;18.14;100.00
46614;BME280;32338;50.430;6.806;2023-05-21T09:58:31;67404.69;;;18.16;100.00
46614;BME280;32338;50.430;6.806;2023-05-21T10:00:58;67391.84;;;18.07;100.00
46614;BME280;32338;50.430;6.806;2023-05-21T10:03:26;67413.19;;;18.24;100.00
46614;BME280;32338;50.430;6.806;2023-05-21T10:05:54;67419.59;;;18.32;100.00
46614;BME280;32338;50.430;6.806;2023-05-21T10:08:21;67423.78;;;18.31;100.00
46614;BME280;32338;50.430;6.806;2023-05-21T10:10:50;67431.13;;;18.45;100.00
46614;BME280;32338;50.430;6.806;2023-05-21T10:13:20;67426.78;;;18.36;100.00
46614;BME280;32338;50.430;6.806;2023-05-21T10:15:57;67430.78;;;18.40;100.00
46614;BME280;32338;50.430;6.806;2023-05-21T10:18:25;67447.59;;;18.53;100.00
46614;BME280;32338;50.430;6.806;2023-05-21T10:20:52;67436.44;;;18.45;100.00
46614;BME280;32338;50.430;6.806;2023-05-21T10:23:22;67460.28;;;18.67;100.00
46614;BME280;32338;50.430;6.806;2023-05-21T10:25:50;67465.72;;;18.76;100.00
46614;BME280;32338;50.430;6.806;2023-05-21T10:28:18;67447.22;;;18.55;100.00
46614;BME280;32338;50.430;6.806;2023-05-21T10:30:45;67468.78;;;18.74;100.00
46614;BME280;32338;50.430;6.806;2023-05-21T10:33:14;67455.53;;;18.67;100.00
46614;BME280;32338;50.430;6.806;2023-05-21T10:35:41;67458.56;;;18.65;100.00
46614;BME280;32338;50.430;6.806;2023-05-21T10:38:10;67451.72;;;18.66;100.00
46614;BME280;32338;50.430;6.806;2023-05-21T10:40:39;67459.31;;;18.68;100.00
46614;BME280;32338;50.430;6.806;2023-05-21T10:46:15;67490.69;;;18.99;100.00
46614;BME280;32338;50.430;6.806;2023-05-21T10:48:57;67497.34;;;19.03;100.00
46614;BME280;32338;50.430;6.806;2023-05-21T10:51:37;67528.00;;;19.31;100.00
46614;BME280;32338;50.430;6.806;2023-05-21T10:54:55;67531.22;;;19.31;100.00
46614;BME280;32338;50.430;6.806;2023-05-21T11:00:40;67530.25;;;19.33;100.00
46614;BME280;32338;50.430;6.806;2023-05-21T11:03:09;67538.75;;;19.40;100.00
46614;BME280;32338;50.430;6.806;2023-05-21T11:05:50;67548.97;;;19.50;100.00
46614;BME280;32338;50.430;6.806;2023-05-21T11:08:21;67575.31;;;19.69;100.00
46614;BME280;32338;50.430;6.806;2023-05-21T11:10:52;67544.81;;;19.43;100.00
46614;BME280;32338;50.430;6.806;2023-05-21T11:13:19;67505.47;;;19.12;100.00
46614;BME280;32338;50.430;6.806;2023-05-21T11:16:05;67505.28;;;19.10;100.00
46614;BME280;32338;50.430;6.806;2023-05-21T11:18:57;67524.56;;;19.27;100.00
46614;BME280;32338;50.430;6.806;2023-05-21T11:21:28;67553.91;;;19.52;100.00
46614;BME280;32338;50.430;6.806;2023-05-21T11:23:58;67562.44;;;19.59;100.00
46614;BME280;32338;50.430;6.806;2023-05-21T11:26:27;67581.16;;;19.76;100.00
46614;BME280;32338;50.430;6.806;2023-05-21T11:29:05;67611.84;;;20.04;100.00
46614;BME280;32338;50.430;6.806;2023-05-21T11:31:33;67612.97;;;20.05;100.00
46614;BME280;32338;50.430;6.806;2023-05-21T11:34:12;67572.81;;;19.71;100.00
46614;BME280;32338;50.430;6.806;2023-05-21T11:36:41;67577.19;;;19.73;100.00
46614;BME280;32338;50.430;6.806;2023-05-21T11:39:09;67601.22;;;19.97;100.00
46614;BME280;32338;50.430;6.806;2023-05-21T11:41:52;67605.22;;;20.01;100.00
46614;BME280;32338;50.430;6.806;2023-05-21T11:44:37;67613.16;;;20.08;100.00
46614;BME280;32338;50.430;6.806;2023-05-21T11:47:05;67632.28;;;20.23;100.00
46614;BME280;32338;50.430;6.806;2023-05-21T11:49:32;67666.34;;;20.54;100.00
46614;BME280;32338;50.430;6.806;2023-05-21T11:52:00;67665.22;;;20.53;100.00
46614;BME280;32338;50.430;6.806;2023-05-21T11:54:29;67672.03;;;20.59;100.00
46614;BME280;32338;50.430;6.806;2023-05-21T11:56:58;67706.88;;;20.93;100.00
46614;BME280;32338;50.430;6.806;2023-05-21T11:59:25;67697.63;;;20.82;100.00
46614;BME280;32338;50.430;6.806;2023-05-21T12:01:52;67665.41;;;20.55;100.00
46614;BME280;32338;50.430;6.806;2023-05-21T12:04:19;67687.97;;;20.73;100.00
46614;BME280;32338;50.430;6.806;2023-05-21T12:06:46;67702.94;;;20.89;100.00
46614;BME280;32338;50.430;6.806;2023-05-21T12:09:14;67684.72;;;20.73;100.00
46614;BME280;32338;50.430;6.806;2023-05-21T12:11:40;67700.84;;;20.83;100.00
46614;BME280;32338;50.430;6.806;2023-05-21T12:14:07;67692.50;;;20.78;100.00
46614;BME280;32338;50.430;6.806;2023-05-21T12:16:35;67703.31;;;20.87;100.00
46614;BME280;32338;50.430;6.806;2023-05-21T12:19:02;67676.00;;;20.63;100.00
46614;BME280;32338;50.430;6.806;2023-05-21T12:21:29;67638.72;;;20.31;100.00
46614;BME280;32338;50.430;6.806;2023-05-21T12:23:56;67675.81;;;20.67;100.00
46614;BME280;32338;50.430;6.806;2023-05-21T12:26:24;67685.31;;;20.73;100.00
46614;BME280;32338;50.430;6.806;2023-05-21T12:28:52;67714.28;;;21.00;100.00
46614;BME280;32338;50.430;6.806;2023-05-21T12:31:19;67727.19;;;21.09;100.00
46614;BME280;32338;50.430;6.806;2023-05-21T12:33:47;67752.34;;;21.34;100.00
46614;BME280;32338;50.430;6.806;2023-05-21T12:36:21;67714.28;;;21.00;100.00
46614;BME280;32338;50.430;6.806;2023-05-21T12:38:48;67733.03;;;21.17;100.00
46614;BME280;32338;50.430;6.806;2023-05-21T12:41:16;67745.53;;;21.28;100.00
46614;BME280;32338;50.430;6.806;2023-05-21T12:43:45;67758.78;;;21.43;100.00
46614;BME280;32338;50.430;6.806;2023-05-21T12:46:12;67797.13;;;21.73;100.00
46614;BME280;32338;50.430;6.806;2023-05-21T12:48:47;67803.38;;;21.78;100.00
46614;BME280;32338;50.430;6.806;2023-05-21T12:51:13;67807.13;;;21.86;100.00
46614;BME280;32338;50.430;6.806;2023-05-21T12:53:40;67750.25;;;21.35;100.00
46614;BME280;32338;50.430;6.806;2023-05-21T12:56:08;67776.47;;;21.51;100.00
46614;BME280;32338;50.430;6.806;2023-05-21T12:58:35;67771.28;;;21.54;100.00
46614;BME280;32338;50.430;6.806;2023-05-21T13:01:06;67817.19;;;21.93;100.00
46614;BME280;32338;50.430;6.806;2023-05-21T13:03:33;67759.00;;;21.38;100.00